sensor_id;sensor_type;location;lat;lon;timestamp;pressure;altitude;pressure_sealevel;temperature;humidity
57232;BME280;43488;46.934;8.276;2022-08-14T00:00:53;96142.66;;;18.45;57.71
57232;BME280;43488;46.934;8.276;2022-08-14T00:03:29;96135.22;;;18.42;57.80
57232;BME280;43488;46.934;8.276;2022-08-14T00:06:02;96128.81;;;18.38;57.88
57232;BME280;43488;46.934;8.276;2022-08-14T00:08:30;96121.91;;;18.47;57.86
57232;BME280;43488;46.934;8.276;2022-08-14T00:10:57;96122.94;;;18.41;58.17
57232;BME280;43488;46.934;8.276;2022-08-14T00:13:26;96123.22;;;18.39;57.89
57232;BME280;43488;46.934;8.276;2022-08-14T00:15:58;96109.63;;;18.46;57.19
57232;BME280;43488;46.934;8.276;2022-08-14T00:18:27;96108.56;;;18.42;57.06
57232;BME280;43488;46.934;8.276;2022-08-14T00:20:56;96104.28;;;18.41;57.12
57232;BME280;43488;46.934;8.276;2022-08-14T00:23:23;96098.97;;;18.31;57.08
57232;BME280;43488;46.934;8.276;2022-08-14T00:25:53;96107.50;;;18.33;57.06
57232;BME280;43488;46.934;8.276;2022-08-14T00:28:21;96105.09;;;18.36;57.10
57232;BME280;43488;46.934;8.276;2022-08-14T00:30:56;96099.50;;;18.38;57.04
57232;BME280;43488;46.934;8.276;2022-08-14T00:33:27;96096.56;;;18.39;56.99
57232;BME280;43488;46.934;8.276;2022-08-14T00:35:54;96100.81;;;18.45;56.93
57232;BME280;43488;46.934;8.276;2022-08-14T00:38:22;96097.63;;;18.43;56.95
57232;BME280;43488;46.934;8.276;2022-08-14T00:40:50;96094.69;;;18.45;57.14
57232;BME280;43488;46.934;8.276;2022-08-14T00:43:17;96088.31;;;18.41;57.26
57232;BME280;43488;46.934;8.276;2022-08-14T00:45:44;96086.97;;;18.38;57.22
57232;BME280;43488;46.934;8.276;2022-08-14T00:48:13;96086.44;;;18.26;57.75
57232;BME280;43488;46.934;8.276;2022-08-14T00:50:43;96084.06;;;18.30;57.22
57232;BME280;43488;46.934;8.276;2022-08-14T00:53:11;96080.81;;;18.28;57.22
57232;BME280;43488;46.934;8.276;2022-08-14T00:55:40;96071.53;;;18.30;57.67
57232;BME280;43488;46.934;8.276;2022-08-14T00:58:09;96063.00;;;18.13;58.02
57232;BME280;43488;46.934;8.276;2022-08-14T01:00:56;96076.56;;;18.11;58.31
57232;BME280;43488;46.934;8.276;2022-08-14T01:03:26;96069.09;;;18.03;58.54
57232;BME280;43488;46.934;8.276;2022-08-14T01:05:57;96066.44;;;17.98;58.76
57232;BME280;43488;46.934;8.276;2022-08-14T01:08:28;96068.25;;;17.82;59.30
57232;BME280;43488;46.934;8.276;2022-08-14T01:10:57;96059.16;;;17.68;59.82
57232;BME280;43488;46.934;8.276;2022-08-14T01:13:38;96060.16;;;17.52;60.62
57232;BME280;43488;46.934;8.276;2022-08-14T01:16:11;96060.94;;;17.42;61.17
57232;BME280;43488;46.934;8.276;2022-08-14T01:18:39;96058.31;;;17.47;60.81
57232;BME280;43488;46.934;8.276;2022-08-14T01:21:35;96056.41;;;17.38;60.88
57232;BME280;43488;46.934;8.276;2022-08-14T01:24:04;96045.41;;;17.19;61.75
57232;BME280;43488;46.934;8.276;2022-08-14T01:26:34;96041.50;;;17.31;61.49
57232;BME280;43488;46.934;8.276;2022-08-14T01:29:05;96042.59;;;17.41;61.10
57232;BME280;43488;46.934;8.276;2022-08-14T01:31:36;96034.06;;;17.44;61.16
57232;BME280;43488;46.934;8.276;2022-08-14T01:34:09;96034.06;;;17.44;61.73
57232;BME280;43488;46.934;8.276;2022-08-14T01:36:37;96027.72;;;17.50;61.60
57232;BME280;43488;46.934;8.276;2022-08-14T01:39:16;96028.50;;;17.50;61.70
57232;BME280;43488;46.934;8.276;2022-08-14T01:41:47;96029.84;;;17.58;61.39
57232;BME280;43488;46.934;8.276;2022-08-14T01:44:19;96025.09;;;17.65;61.46
57232;BME280;43488;46.934;8.276;2022-08-14T01:46:48;96017.13;;;17.70;61.25
57232;BME280;43488;46.934;8.276;2022-08-14T01:49:20;96019.78;;;17.70;61.22
57232;BME280;43488;46.934;8.276;2022-08-14T01:51:48;96018.13;;;17.54;61.86
57232;BME280;43488;46.934;8.276;2022-08-14T01:54:21;96011.50;;;17.56;61.83
57232;BME280;43488;46.934;8.276;2022-08-14T01:56:55;96013.59;;;17.44;62.12
57232;BME280;43488;46.934;8.276;2022-08-14T01:59:29;96005.34;;;17.51;61.95
57232;BME280;43488;46.934;8.276;2022-08-14T02:02:06;96011.75;;;17.50;61.98
57232;BME280;43488;46.934;8.276;2022-08-14T02:04:39;96004.81;;;17.54;61.64
57232;BME280;43488;46.934;8.276;2022-08-14T02:07:08;96004.81;;;17.49;61.83
57232;BME280;43488;46.934;8.276;2022-08-14T02:09:36;96006.69;;;17.53;61.96
57232;BME280;43488;46.934;8.276;2022-08-14T02:12:07;96010.69;;;17.56;61.80
57232;BME280;43488;46.934;8.276;2022-08-14T02:14:35;96004.56;;;17.50;62.29
57232;BME280;43488;46.934;8.276;2022-08-14T02:17:03;96003.50;;;17.51;62.22
57232;BME280;43488;46.934;8.276;2022-08-14T02:19:31;96001.31;;;17.33;62.75
57232;BME280;43488;46.934;8.276;2022-08-14T02:21:59;96002.09;;;17.23;63.16
57232;BME280;43488;46.934;8.276;2022-08-14T02:24:30;95991.97;;;17.25;62.89
57232;BME280;43488;46.934;8.276;2022-08-14T02:26:58;95994.88;;;17.19;63.04
57232;BME280;43488;46.934;8.276;2022-08-14T02:29:29;95982.63;;;17.13;63.27
57232;BME280;43488;46.934;8.276;2022-08-14T02:31:59;95973.06;;;17.17;63.16
57232;BME280;43488;46.934;8.276;2022-08-14T02:34:30;95979.75;;;17.19;63.29
57232;BME280;43488;46.934;8.276;2022-08-14T02:37:08;95977.88;;;17.25;63.20
57232;BME280;43488;46.934;8.276;2022-08-14T02:39:40;95973.59;;;17.19;63.55
57232;BME280;43488;46.934;8.276;2022-08-14T02:42:15;95969.59;;;17.16;63.90
57232;BME280;43488;46.934;8.276;2022-08-14T02:44:43;95976.75;;;17.05;64.01
57232;BME280;43488;46.934;8.276;2022-08-14T02:47:11;95972.78;;;17.08;63.92
57232;BME280;43488;46.934;8.276;2022-08-14T02:49:39;95966.13;;;17.05;64.38
57232;BME280;43488;46.934;8.276;2022-08-14T02:52:06;95961.88;;;17.10;63.70
57232;BME280;43488;46.934;8.276;2022-08-14T02:54:34;95962.41;;;17.06;63.68
57232;BME280;43488;46.934;8.276;2022-08-14T02:57:04;95960.28;;;17.09;63.48
57232;BME280;43488;46.934;8.276;2022-08-14T02:59:35;95949.38;;;17.05;63.98
57232;BME280;43488;46.934;8.276;2022-08-14T03:02:03;95951.75;;;17.01;64.25
57232;BME280;43488;46.934;8.276;2022-08-14T03:04:31;95935.00;;;17.01;65.74
57232;BME280;43488;46.934;8.276;2022-08-14T03:06:59;95931.53;;;16.95;65.14
57232;BME280;43488;46.934;8.276;2022-08-14T03:09:26;95927.56;;;17.03;64.42
57232;BME280;43488;46.934;8.276;2022-08-14T03:11:53;95923.03;;;16.98;63.61
57232;BME280;43488;46.934;8.276;2022-08-14T03:14:21;95921.97;;;16.94;63.26
57232;BME280;43488;46.934;8.276;2022-08-14T03:16:53;95915.00;;;16.88;63.19
57232;BME280;43488;46.934;8.276;2022-08-14T03:19:21;95908.38;;;16.91;63.53
57232;BME280;43488;46.934;8.276;2022-08-14T03:21:48;95908.38;;;16.91;63.81
57232;BME280;43488;46.934;8.276;2022-08-14T03:24:16;95902.00;;;16.92;63.45
57232;BME280;43488;46.934;8.276;2022-08-14T03:26:47;95901.19;;;16.91;62.98
57232;BME280;43488;46.934;8.276;2022-08-14T03:29:16;95896.94;;;16.85;62.91
57232;BME280;43488;46.934;8.276;2022-08-14T03:31:47;95905.72;;;16.86;62.64
57232;BME280;43488;46.934;8.276;2022-08-14T03:34:18;95900.09;;;16.77;62.34
57232;BME280;43488;46.934;8.276;2022-08-14T03:36:45;95900.06;;;16.72;62.51
57232;BME280;43488;46.934;8.276;2022-08-14T03:39:13;95913.31;;;16.67;62.76
57232;BME280;43488;46.934;8.276;2022-08-14T03:41:40;95909.03;;;16.61;63.11
57232;BME280;43488;46.934;8.276;2022-08-14T03:44:07;95900.25;;;16.55;63.38
57232;BME280;43488;46.934;8.276;2022-08-14T03:46:37;95902.69;;;16.67;63.29
57232;BME280;43488;46.934;8.276;2022-08-14T03:49:05;95907.50;;;16.70;62.95
57232;BME280;43488;46.934;8.276;2022-08-14T03:51:34;95908.81;;;16.67;62.70
57232;BME280;43488;46.934;8.276;2022-08-14T03:54:06;95914.41;;;16.71;63.06
57232;BME280;43488;46.934;8.276;2022-08-14T03:56:35;95912.50;;;16.61;63.29
57232;BME280;43488;46.934;8.276;2022-08-14T03:59:06;95899.38;;;16.39;63.84
57232;BME280;43488;46.934;8.276;2022-08-14T04:01:36;95902.56;;;16.41;63.96
57232;BME280;43488;46.934;8.276;2022-08-14T04:04:05;95895.13;;;16.43;63.62
57232;BME280;43488;46.934;8.276;2022-08-14T04:06:37;95894.38;;;16.48;63.20
57232;BME280;43488;46.934;8.276;2022-08-14T04:09:05;95899.38;;;16.39;63.28
57232;BME280;43488;46.934;8.276;2022-08-14T04:11:37;95907.78;;;16.26;64.57
57232;BME280;43488;46.934;8.276;2022-08-14T04:14:05;95896.94;;;16.28;64.44
57232;BME280;43488;46.934;8.276;2022-08-14T04:16:33;95902.53;;;16.31;63.94
57232;BME280;43488;46.934;8.276;2022-08-14T04:19:01;95904.00;;;16.12;64.55
57232;BME280;43488;46.934;8.276;2022-08-14T04:21:30;95909.59;;;16.15;64.55
57232;BME280;43488;46.934;8.276;2022-08-14T04:24:00;95911.25;;;16.27;64.35
57232;BME280;43488;46.934;8.276;2022-08-14T04:26:29;95925.06;;;16.24;63.89
57232;BME280;43488;46.934;8.276;2022-08-14T04:28:58;95924.53;;;16.27;63.76
57232;BME280;43488;46.934;8.276;2022-08-14T04:31:26;95919.47;;;16.25;63.99
57232;BME280;43488;46.934;8.276;2022-08-14T04:33:54;95920.53;;;16.19;64.32
57232;BME280;43488;46.934;8.276;2022-08-14T04:36:22;95913.59;;;16.18;64.47
57232;BME280;43488;46.934;8.276;2022-08-14T04:38:49;95919.97;;;16.17;64.61
57232;BME280;43488;46.934;8.276;2022-08-14T04:41:36;95932.47;;;16.21;64.50
57232;BME280;43488;46.934;8.276;2022-08-14T04:44:22;95927.75;;;16.29;64.04
57232;BME280;43488;46.934;8.276;2022-08-14T04:46:50;95929.09;;;16.31;64.49
57232;BME280;43488;46.934;8.276;2022-08-14T04:49:36;95920.59;;;16.29;64.73
57232;BME280;43488;46.934;8.276;2022-08-14T04:52:04;95928.56;;;16.34;64.83
57232;BME280;43488;46.934;8.276;2022-08-14T04:54:31;95927.44;;;16.25;64.97
57232;BME280;43488;46.934;8.276;2022-08-14T04:56:58;95927.75;;;16.29;64.98
57232;BME280;43488;46.934;8.276;2022-08-14T04:59:25;95916.03;;;16.25;64.91
57232;BME280;43488;46.934;8.276;2022-08-14T05:01:53;95913.63;;;16.23;65.25
57232;BME280;43488;46.934;8.276;2022-08-14T05:04:21;95901.44;;;16.27;65.18
57232;BME280;43488;46.934;8.276;2022-08-14T05:06:50;95903.53;;;16.20;65.82
57232;BME280;43488;46.934;8.276;2022-08-14T05:09:18;95904.06;;;16.22;66.12
57232;BME280;43488;46.934;8.276;2022-08-14T05:11:46;95905.66;;;16.23;65.89
57232;BME280;43488;46.934;8.276;2022-08-14T05:14:14;95905.41;;;16.25;66.30
57232;BME280;43488;46.934;8.276;2022-08-14T05:16:43;95901.25;;;16.39;66.11
57232;BME280;43488;46.934;8.276;2022-08-14T05:19:10;95891.13;;;16.36;66.59
57232;BME280;43488;46.934;8.276;2022-08-14T05:21:40;95901.50;;;16.42;66.72
57232;BME280;43488;46.934;8.276;2022-08-14T05:24:08;95898.59;;;16.39;66.46
57232;BME280;43488;46.934;8.276;2022-08-14T05:26:38;95882.38;;;16.45;66.35
57232;BME280;43488;46.934;8.276;2022-08-14T05:29:10;95889.56;;;16.45;66.46
57232;BME280;43488;46.934;8.276;2022-08-14T05:31:37;95876.59;;;16.54;66.91
57232;BME280;43488;46.934;8.276;2022-08-14T05:34:08;95874.53;;;16.66;66.49
57232;BME280;43488;46.934;8.276;2022-08-14T05:36:37;95870.31;;;16.70;66.51
57232;BME280;43488;46.934;8.276;2022-08-14T05:39:04;95856.75;;;16.71;67.00
57232;BME280;43488;46.934;8.276;2022-08-14T05:41:33;95867.41;;;16.76;66.58
57232;BME280;43488;46.934;8.276;2022-08-14T05:44:00;95859.97;;;16.78;65.82
57232;BME280;43488;46.934;8.276;2022-08-14T05:46:28;95851.75;;;16.85;65.37
57232;BME280;43488;46.934;8.276;2022-08-14T05:48:57;95846.72;;;16.99;65.05
57232;BME280;43488;46.934;8.276;2022-08-14T05:51:26;95838.75;;;17.09;64.60
57232;BME280;43488;46.934;8.276;2022-08-14T05:53:55;95836.66;;;17.21;65.15
57232;BME280;43488;46.934;8.276;2022-08-14T05:56:24;95844.63;;;17.26;64.74
57232;BME280;43488;46.934;8.276;2022-08-14T05:58:52;95835.59;;;17.32;63.47
57232;BME280;43488;46.934;8.276;2022-08-14T06:01:21;95844.38;;;17.38;65.77
57232;BME280;43488;46.934;8.276;2022-08-14T06:03:49;95836.66;;;17.47;68.20
57232;BME280;43488;46.934;8.276;2022-08-14T06:06:17;95839.81;;;17.54;67.56
57232;BME280;43488;46.934;8.276;2022-08-14T06:08:46;95833.97;;;17.62;64.08
57232;BME280;43488;46.934;8.276;2022-08-14T06:11:14;95843.03;;;17.71;62.75
57232;BME280;43488;46.934;8.276;2022-08-14T06:13:42;95838.78;;;17.75;61.98
57232;BME280;43488;46.934;8.276;2022-08-14T06:16:10;95842.22;;;17.91;61.84
57232;BME280;43488;46.934;8.276;2022-08-14T06:18:39;95840.88;;;17.99;61.79
57232;BME280;43488;46.934;8.276;2022-08-14T06:21:07;95838.16;;;18.09;61.37
57232;BME280;43488;46.934;8.276;2022-08-14T06:23:34;95847.47;;;18.22;60.88
57232;BME280;43488;46.934;8.276;2022-08-14T06:26:02;95845.28;;;18.34;60.67
57232;BME280;43488;46.934;8.276;2022-08-14T06:28:30;95848.44;;;18.46;60.94
57232;BME280;43488;46.934;8.276;2022-08-14T06:30:58;95842.81;;;18.58;62.43
57232;BME280;43488;46.934;8.276;2022-08-14T06:33:26;95842.00;;;18.67;62.39
57232;BME280;43488;46.934;8.276;2022-08-14T06:35:53;95843.00;;;18.77;62.18
57232;BME280;43488;46.934;8.276;2022-08-14T06:38:21;95845.09;;;18.85;62.64
57232;BME280;43488;46.934;8.276;2022-08-14T06:40:51;95846.13;;;18.89;63.92
57232;BME280;43488;46.934;8.276;2022-08-14T06:43:18;95851.97;;;18.91;63.12
57232;BME280;43488;46.934;8.276;2022-08-14T06:45:48;95839.72;;;18.95;62.05
57232;BME280;43488;46.934;8.276;2022-08-14T06:48:18;95851.13;;;19.00;60.62
57232;BME280;43488;46.934;8.276;2022-08-14T06:50:46;95843.88;;;19.11;59.94
57232;BME280;43488;46.934;8.276;2022-08-14T06:53:14;95841.94;;;19.22;60.18
57232;BME280;43488;46.934;8.276;2022-08-14T06:55:44;95845.25;;;19.38;58.55
57232;BME280;43488;46.934;8.276;2022-08-14T06:58:15;95844.16;;;19.44;57.25
57232;BME280;43488;46.934;8.276;2022-08-14T07:00:43;95859.31;;;19.58;57.93
57232;BME280;43488;46.934;8.276;2022-08-14T07:03:31;95857.06;;;19.71;57.23
57232;BME280;43488;46.934;8.276;2022-08-14T07:06:18;95848.13;;;19.85;57.04
57232;BME280;43488;46.934;8.276;2022-08-14T07:08:46;95834.38;;;19.97;56.66
57232;BME280;43488;46.934;8.276;2022-08-14T07:11:13;95811.75;;;20.13;58.34
57232;BME280;43488;46.934;8.276;2022-08-14T07:13:41;95803.63;;;20.24;58.77
57232;BME280;43488;46.934;8.276;2022-08-14T07:16:08;95815.78;;;20.35;57.69
57232;BME280;43488;46.934;8.276;2022-08-14T07:18:39;95836.81;;;20.41;58.02
57232;BME280;43488;46.934;8.276;2022-08-14T07:21:08;95836.06;;;20.36;57.22
57232;BME280;43488;46.934;8.276;2022-08-14T07:23:37;95820.44;;;20.48;57.29
57232;BME280;43488;46.934;8.276;2022-08-14T07:26:06;95824.94;;;20.53;57.04
57232;BME280;43488;46.934;8.276;2022-08-14T07:28:36;95829.47;;;20.28;54.89
57232;BME280;43488;46.934;8.276;2022-08-14T07:31:09;95845.41;;;20.38;54.35
57232;BME280;43488;46.934;8.276;2022-08-14T07:33:41;95846.56;;;20.56;53.61
57232;BME280;43488;46.934;8.276;2022-08-14T07:36:13;95830.16;;;20.63;53.29
57232;BME280;43488;46.934;8.276;2022-08-14T07:38:41;95827.44;;;20.68;53.17
57232;BME280;43488;46.934;8.276;2022-08-14T07:41:10;95840.38;;;20.80;53.74
57232;BME280;43488;46.934;8.276;2022-08-14T07:43:40;95840.59;;;20.83;53.54
57232;BME280;43488;46.934;8.276;2022-08-14T07:46:08;95824.69;;;20.92;53.40
57232;BME280;43488;46.934;8.276;2022-08-14T07:48:39;95827.38;;;21.11;54.39
57232;BME280;43488;46.934;8.276;2022-08-14T07:51:07;95838.44;;;21.04;54.79
57232;BME280;43488;46.934;8.276;2022-08-14T07:53:34;95829.97;;;21.16;55.69
57232;BME280;43488;46.934;8.276;2022-08-14T07:56:02;95824.69;;;21.11;56.45
57232;BME280;43488;46.934;8.276;2022-08-14T07:58:29;95833.53;;;21.30;56.34
57232;BME280;43488;46.934;8.276;2022-08-14T08:00:57;95843.56;;;21.38;55.38
57232;BME280;43488;46.934;8.276;2022-08-14T08:03:25;95829.94;;;21.53;55.22
57232;BME280;43488;46.934;8.276;2022-08-14T08:05:53;95827.34;;;21.48;55.42
57232;BME280;43488;46.934;8.276;2022-08-14T08:08:22;95836.81;;;21.60;54.78
57232;BME280;43488;46.934;8.276;2022-08-14T08:10:55;95837.25;;;21.80;54.16
57232;BME280;43488;46.934;8.276;2022-08-14T08:13:23;95820.22;;;21.90;54.04
57232;BME280;43488;46.934;8.276;2022-08-14T08:15:56;95823.31;;;21.97;54.01
57232;BME280;43488;46.934;8.276;2022-08-14T08:18:25;95821.59;;;22.01;54.07
57232;BME280;43488;46.934;8.276;2022-08-14T08:20:54;95825.38;;;22.00;53.57
57232;BME280;43488;46.934;8.276;2022-08-14T08:23:22;95821.03;;;22.04;53.47
57232;BME280;43488;46.934;8.276;2022-08-14T08:25:51;95808.66;;;22.08;52.72
57232;BME280;43488;46.934;8.276;2022-08-14T08:28:25;95817.47;;;22.09;54.03
57232;BME280;43488;46.934;8.276;2022-08-14T08:31:00;95814.03;;;22.22;53.29
57232;BME280;43488;46.934;8.276;2022-08-14T08:33:31;95815.72;;;22.32;52.07
57232;BME280;43488;46.934;8.276;2022-08-14T08:36:03;95831.97;;;22.63;51.20
57232;BME280;43488;46.934;8.276;2022-08-14T08:38:31;95825.78;;;22.76;51.80
57232;BME280;43488;46.934;8.276;2022-08-14T08:40:59;95821.94;;;22.68;49.62
57232;BME280;43488;46.934;8.276;2022-08-14T08:43:30;95826.88;;;22.75;49.58
57232;BME280;43488;46.934;8.276;2022-08-14T08:46:08;95833.94;;;22.85;49.25
57232;BME280;43488;46.934;8.276;2022-08-14T08:48:54;95838.59;;;22.93;48.57
57232;BME280;43488;46.934;8.276;2022-08-14T08:51:30;95840.47;;;23.06;48.56
57232;BME280;43488;46.934;8.276;2022-08-14T08:56:50;95833.59;;;23.14;47.81
57232;BME280;43488;46.934;8.276;2022-08-14T08:59:27;95835.13;;;23.28;47.28
57232;BME280;43488;46.934;8.276;2022-08-14T09:01:57;95829.88;;;23.46;48.68
57232;BME280;43488;46.934;8.276;2022-08-14T09:04:27;95826.94;;;23.56;47.41
57232;BME280;43488;46.934;8.276;2022-08-14T09:06:56;95831.50;;;23.69;46.44
57232;BME280;43488;46.934;8.276;2022-08-14T09:09:31;95832.38;;;23.87;47.53
57232;BME280;43488;46.934;8.276;2022-08-14T09:12:01;95824.00;;;23.89;48.12
57232;BME280;43488;46.934;8.276;2022-08-14T09:14:30;95815.00;;;23.93;46.61
57232;BME280;43488;46.934;8.276;2022-08-14T09:16:59;95816.31;;;24.04;46.13
57232;BME280;43488;46.934;8.276;2022-08-14T09:19:26;95819.69;;;24.10;46.72
57232;BME280;43488;46.934;8.276;2022-08-14T09:21:54;95817.66;;;24.16;46.52
57232;BME280;43488;46.934;8.276;2022-08-14T09:24:22;95809.00;;;24.27;47.20
57232;BME280;43488;46.934;8.276;2022-08-14T09:26:50;95817.75;;;24.33;48.91
57232;BME280;43488;46.934;8.276;2022-08-14T09:29:19;95813.31;;;24.37;48.42
57232;BME280;43488;46.934;8.276;2022-08-14T09:31:54;95823.28;;;24.36;47.91
57232;BME280;43488;46.934;8.276;2022-08-14T09:35:08;95816.84;;;24.46;47.72
57232;BME280;43488;46.934;8.276;2022-08-14T09:37:59;95822.69;;;24.48;47.49
57232;BME280;43488;46.934;8.276;2022-08-14T09:41:09;95819.69;;;24.50;47.82
57232;BME280;43488;46.934;8.276;2022-08-14T09:44:05;95821.88;;;24.39;47.84
57232;BME280;43488;46.934;8.276;2022-08-14T09:46:34;95818.25;;;24.44;48.33
57232;BME280;43488;46.934;8.276;2022-08-14T09:49:04;95816.72;;;24.51;48.49
57232;BME280;43488;46.934;8.276;2022-08-14T09:51:35;95822.97;;;24.38;47.77
57232;BME280;43488;46.934;8.276;2022-08-14T09:54:08;95818.56;;;24.42;48.90
57232;BME280;43488;46.934;8.276;2022-08-14T09:56:49;95821.59;;;24.49;48.73
57232;BME280;43488;46.934;8.276;2022-08-14T09:59:17;95822.25;;;24.55;47.87
57232;BME280;43488;46.934;8.276;2022-08-14T10:01:49;95824.25;;;24.40;47.91
57232;BME280;43488;46.934;8.276;2022-08-14T10:04:19;95826.34;;;24.52;47.94
57232;BME280;43488;46.934;8.276;2022-08-14T10:06:48;95830.19;;;24.60;47.63
57232;BME280;43488;46.934;8.276;2022-08-14T10:09:18;95832.56;;;24.70;47.12
57232;BME280;43488;46.934;8.276;2022-08-14T10:11:58;95829.84;;;24.53;46.97
57232;BME280;43488;46.934;8.276;2022-08-14T10:14:29;95818.28;;;24.52;46.99
57232;BME280;43488;46.934;8.276;2022-08-14T10:16:59;95821.66;;;24.75;46.59
57232;BME280;43488;46.934;8.276;2022-08-14T10:19:28;95818.81;;;24.80;47.04
57232;BME280;43488;46.934;8.276;2022-08-14T10:22:03;95818.50;;;24.90;47.17
57232;BME280;43488;46.934;8.276;2022-08-14T10:24:38;95818.25;;;25.09;46.34
57232;BME280;43488;46.934;8.276;2022-08-14T10:27:18;95807.78;;;25.16;46.01
57232;BME280;43488;46.934;8.276;2022-08-14T10:29:53;95810.47;;;25.16;46.96
57232;BME280;43488;46.934;8.276;2022-08-14T10:32:21;95815.06;;;25.33;47.32
57232;BME280;43488;46.934;8.276;2022-08-14T10:34:49;95811.56;;;25.33;46.01
57232;BME280;43488;46.934;8.276;2022-08-14T10:37:17;95811.09;;;25.39;45.31
57232;BME280;43488;46.934;8.276;2022-08-14T10:40:00;95814.25;;;25.41;45.03
57232;BME280;43488;46.934;8.276;2022-08-14T10:42:40;95813.00;;;25.47;45.78
57232;BME280;43488;46.934;8.276;2022-08-14T10:45:24;95817.44;;;25.52;45.81
57232;BME280;43488;46.934;8.276;2022-08-14T10:47:53;95824.09;;;25.37;45.99
57232;BME280;43488;46.934;8.276;2022-08-14T10:50:32;95819.63;;;25.50;45.20
57232;BME280;43488;46.934;8.276;2022-08-14T10:53:01;95818.38;;;25.47;44.71
57232;BME280;43488;46.934;8.276;2022-08-14T10:55:37;95827.72;;;25.59;44.61
57232;BME280;43488;46.934;8.276;2022-08-14T10:58:09;95821.72;;;25.53;44.25
57232;BME280;43488;46.934;8.276;2022-08-14T11:00:40;95828.66;;;25.63;44.69
57232;BME280;43488;46.934;8.276;2022-08-14T11:03:11;95817.56;;;25.82;43.83
57232;BME280;43488;46.934;8.276;2022-08-14T11:05:49;95826.56;;;25.94;44.17
57232;BME280;43488;46.934;8.276;2022-08-14T11:08:30;95820.22;;;25.99;43.63
57232;BME280;43488;46.934;8.276;2022-08-14T11:11:00;95827.50;;;25.98;43.57
57232;BME280;43488;46.934;8.276;2022-08-14T11:13:30;95831.09;;;26.11;44.06
57232;BME280;43488;46.934;8.276;2022-08-14T11:16:00;95836.63;;;26.15;44.13
57232;BME280;43488;46.934;8.276;2022-08-14T11:18:30;95826.03;;;26.09;43.59
57232;BME280;43488;46.934;8.276;2022-08-14T11:20:59;95833.31;;;26.18;43.24
57232;BME280;43488;46.934;8.276;2022-08-14T11:23:32;95831.53;;;26.22;43.67
57232;BME280;43488;46.934;8.276;2022-08-14T11:26:00;95830.13;;;26.24;43.68
57232;BME280;43488;46.934;8.276;2022-08-14T11:28:33;95835.31;;;26.38;43.49
57232;BME280;43488;46.934;8.276;2022-08-14T11:31:02;95838.63;;;26.44;43.73
57232;BME280;43488;46.934;8.276;2022-08-14T11:33:31;95844.50;;;26.37;44.02
57232;BME280;43488;46.934;8.276;2022-08-14T11:36:06;95834.03;;;26.35;43.51
57232;BME280;43488;46.934;8.276;2022-08-14T11:38:40;95836.25;;;26.42;43.84
57232;BME280;43488;46.934;8.276;2022-08-14T11:41:11;95835.94;;;26.35;42.92
57232;BME280;43488;46.934;8.276;2022-08-14T11:43:45;95833.88;;;26.41;43.92
57232;BME280;43488;46.934;8.276;2022-08-14T11:46:14;95836.50;;;26.11;44.63
57232;BME280;43488;46.934;8.276;2022-08-14T11:48:53;95832.22;;;26.10;44.77
57232;BME280;43488;46.934;8.276;2022-08-14T11:51:24;95828.53;;;26.15;44.18
57232;BME280;43488;46.934;8.276;2022-08-14T11:54:01;95828.75;;;26.01;44.55
57232;BME280;43488;46.934;8.276;2022-08-14T11:56:37;95835.09;;;26.05;44.70
57232;BME280;43488;46.934;8.276;2022-08-14T11:59:13;95834.63;;;26.03;44.68
57232;BME280;43488;46.934;8.276;2022-08-14T12:01:42;95836.53;;;26.02;44.42
57232;BME280;43488;46.934;8.276;2022-08-14T12:04:15;95830.72;;;25.83;43.74
57232;BME280;43488;46.934;8.276;2022-08-14T12:06:53;95826.84;;;26.01;44.97
57232;BME280;43488;46.934;8.276;2022-08-14T12:09:34;95833.34;;;26.09;43.85
57232;BME280;43488;46.934;8.276;2022-08-14T12:14:56;95823.44;;;26.22;43.98
57232;BME280;43488;46.934;8.276;2022-08-14T12:17:25;95823.78;;;26.20;44.46
57232;BME280;43488;46.934;8.276;2022-08-14T12:19:59;95816.94;;;26.23;43.58
57232;BME280;43488;46.934;8.276;2022-08-14T12:22:43;95821.22;;;26.24;43.54
57232;BME280;43488;46.934;8.276;2022-08-14T12:25:13;95812.63;;;26.30;43.91
57232;BME280;43488;46.934;8.276;2022-08-14T12:27:48;95806.56;;;26.42;43.66
57232;BME280;43488;46.934;8.276;2022-08-14T12:30:39;95808.28;;;26.47;43.86
57232;BME280;43488;46.934;8.276;2022-08-14T12:33:29;95799.72;;;26.74;43.51
57232;BME280;43488;46.934;8.276;2022-08-14T12:36:06;95798.41;;;27.01;43.54
57232;BME280;43488;46.934;8.276;2022-08-14T12:38:41;95794.50;;;27.19;42.80
57232;BME280;43488;46.934;8.276;2022-08-14T12:41:18;95789.53;;;27.21;42.00
57232;BME280;43488;46.934;8.276;2022-08-14T12:43:54;95779.00;;;27.29;42.21
57232;BME280;43488;46.934;8.276;2022-08-14T12:46:34;95779.72;;;27.38;41.74
57232;BME280;43488;46.934;8.276;2022-08-14T12:49:14;95778.78;;;27.34;41.44
57232;BME280;43488;46.934;8.276;2022-08-14T12:51:56;95759.81;;;27.21;40.84
57232;BME280;43488;46.934;8.276;2022-08-14T12:54:24;95766.69;;;26.98;40.80
57232;BME280;43488;46.934;8.276;2022-08-14T12:57:10;95749.03;;;27.01;42.17
57232;BME280;43488;46.934;8.276;2022-08-14T12:59:38;95758.25;;;27.00;41.40
57232;BME280;43488;46.934;8.276;2022-08-14T13:02:05;95745.72;;;26.95;40.14
57232;BME280;43488;46.934;8.276;2022-08-14T13:04:35;95744.75;;;27.00;40.43
57232;BME280;43488;46.934;8.276;2022-08-14T13:07:04;95746.06;;;26.93;40.09
57232;BME280;43488;46.934;8.276;2022-08-14T13:09:34;95733.66;;;26.92;40.41
57232;BME280;43488;46.934;8.276;2022-08-14T13:12:04;95736.16;;;26.77;39.71
57232;BME280;43488;46.934;8.276;2022-08-14T13:14:32;95733.41;;;26.64;40.00
57232;BME280;43488;46.934;8.276;2022-08-14T13:17:01;95736.97;;;26.56;40.15
57232;BME280;43488;46.934;8.276;2022-08-14T13:19:29;95731.63;;;26.48;39.74
57232;BME280;43488;46.934;8.276;2022-08-14T13:21:58;95722.97;;;26.33;40.20
57232;BME280;43488;46.934;8.276;2022-08-14T13:24:26;95726.16;;;26.27;39.63
57232;BME280;43488;46.934;8.276;2022-08-14T13:26:55;95716.28;;;26.31;40.43